Time;durP1;ratioP1;P1;durP2;ratioP2;P2;SDS_P1;SDS_P2;PMS_P1;PMS_P2;Temp;Humidity;BMP_temperature;BMP_pressure;BME280_temperature;BME280_humidity;BME280_pressure;Samples;Min_cycle;Max_cycle;Signal;HPM_P1;HPM_P2
2021/09/27 00:01:10;;;;;;;22.58;13.30;;;17.20;99.90;;;;;;5103840;28;20053;-71
2021/09/27 00:03:36;;;;;;;17.02;13.52;;;17.20;99.90;;;;;;5122972;28;20101;-71
2021/09/27 00:06:03;;;;;;;16.80;12.95;;;17.20;99.90;;;;;;5103818;28;20043;-71
2021/09/27 00:08:29;;;;;;;14.32;11.77;;;17.20;99.90;;;;;;5102019;28;20100;-71
2021/09/27 00:10:59;;;;;;;21.38;13.20;;;17.20;99.90;;;;;;5114023;28;20085;-73
2021/09/27 00:13:27;;;;;;;17.35;12.43;;;17.20;99.90;;;;;;5117375;28;20088;-72
2021/09/27 00:15:54;;;;;;;17.42;12.40;;;17.20;99.90;;;;;;5116475;28;20031;-71
2021/09/27 00:18:20;;;;;;;18.58;13.52;;;17.20;99.90;;;;;;5099087;28;20024;-71
2021/09/27 00:20:50;;;;;;;19.50;14.63;;;17.10;99.90;;;;;;5115863;28;20479;-71
2021/09/27 00:23:17;;;;;;;15.27;12.57;;;17.20;99.90;;;;;;5115905;28;20024;-72
2021/09/27 00:25:43;;;;;;;17.65;13.18;;;16.90;99.90;;;;;;5116066;28;20035;-75
2021/09/27 00:28:08;;;;;;;17.85;12.13;;;16.90;99.90;;;;;;5099309;28;20027;-72
2021/09/27 00:30:34;;;;;;;16.50;12.75;;;16.90;99.90;;;;;;5098760;28;20023;-72
2021/09/27 00:33:00;;;;;;;17.17;12.23;;;16.90;99.90;;;;;;5098698;28;20068;-77
2021/09/27 00:35:29;;;;;;;19.42;12.50;;;16.80;99.90;;;;;;5098621;28;20023;-73
2021/09/27 00:37:55;;;;;;;16.70;13.00;;;16.80;99.90;;;;;;5098041;28;20043;-74
2021/09/27 00:40:25;;;;;;;18.17;12.23;;;16.70;99.90;;;;;;5098698;28;20494;-74
2021/09/27 00:42:52;;;;;;;17.90;13.32;;;16.80;99.90;;;;;;5098519;28;20020;-78
2021/09/27 00:45:20;;;;;;;19.17;12.93;;;16.70;99.90;;;;;;5097952;28;20035;-73
2021/09/27 00:47:46;;;;;;;15.45;13.30;;;16.70;99.90;;;;;;5100138;28;20097;-76
2021/09/27 00:50:14;;;;;;;15.93;12.73;;;16.70;99.90;;;;;;5118247;28;20067;-72
2021/09/27 00:52:40;;;;;;;19.60;14.07;;;16.70;99.90;;;;;;5099193;28;20019;-73
2021/09/27 00:55:08;;;;;;;18.67;13.25;;;16.70;99.90;;;;;;5098817;28;20020;-77
2021/09/27 00:57:33;;;;;;;17.50;12.65;;;16.70;99.90;;;;;;5098444;28;20032;-72
2021/09/27 00:59:59;;;;;;;16.98;13.70;;;16.70;99.90;;;;;;5081176;28;20023;-74
2021/09/27 01:02:25;;;;;;;21.67;13.65;;;16.70;99.90;;;;;;5097869;28;20019;-73
2021/09/27 01:04:53;;;;;;;19.85;14.50;;;16.70;99.90;;;;;;5098087;28;20039;-81
2021/09/27 01:07:54;;;;;;;23.08;13.35;;;16.60;99.90;;;;;;5098007;28;20076;-71
2021/09/27 01:10:59;;;;;;;17.52;12.43;;;16.60;99.90;;;;;;5115939;28;20028;-74
2021/09/27 01:13:46;;;;;;;20.35;12.93;;;16.50;99.90;;;;;;5113305;28;20032;-73
2021/09/27 01:16:19;;;;;;;22.27;13.23;;;16.50;99.90;;;;;;5115948;28;20412;-75
2021/09/27 01:18:59;;;;;;;17.30;13.35;;;16.50;99.90;;;;;;5115579;28;20493;-72
2021/09/27 01:21:36;;;;;;;19.48;13.15;;;16.60;99.90;;;;;;5114557;28;20020;-76
2021/09/27 01:24:20;;;;;;;18.48;13.35;;;16.50;99.90;;;;;;5114209;28;20539;-77
2021/09/27 01:27:27;;;;;;;24.13;13.48;;;16.50;99.90;;;;;;5114126;28;20036;-72
2021/09/27 01:30:13;;;;;;;21.55;14.48;;;16.50;99.90;;;;;;5114118;28;20051;-71
2021/09/27 01:32:47;;;;;;;20.67;14.02;;;16.50;99.90;;;;;;5115973;28;20486;-78
2021/09/27 01:35:16;;;;;;;19.75;14.23;;;16.40;99.90;;;;;;5097347;28;20120;-73
2021/09/27 01:37:49;;;;;;;19.25;12.93;;;16.40;99.90;;;;;;5114109;28;20110;-72
2021/09/27 01:40:28;;;;;;;18.92;14.32;;;16.30;99.90;;;;;;5114045;28;20022;-73
2021/09/27 01:43:01;;;;;;;16.77;13.30;;;16.30;99.90;;;;;;5114247;28;20027;-76
2021/09/27 01:45:45;;;;;;;21.50;14.90;;;16.30;99.90;;;;;;5097073;28;20055;-71
2021/09/27 01:48:16;;;;;;;16.20;13.73;;;16.30;99.90;;;;;;5096868;28;20093;-76
2021/09/27 01:51:09;;;;;;;19.20;14.88;;;16.20;99.90;;;;;;5114034;28;20020;-74
2021/09/27 01:53:57;;;;;;;20.60;15.20;;;16.10;99.90;;;;;;5114020;28;20076;-73
2021/09/27 01:56:39;;;;;;;21.35;14.25;;;16.10;99.90;;;;;;5096578;28;20104;-70
2021/09/27 01:59:09;;;;;;;17.95;13.73;;;16.10;99.90;;;;;;5096776;28;20097;-70
2021/09/27 02:01:52;;;;;;;18.17;15.48;;;16.00;99.90;;;;;;5114631;28;20026;-70
2021/09/27 02:04:30;;;;;;;20.67;14.60;;;16.00;99.90;;;;;;5113695;28;20060;-72
2021/09/27 02:06:57;;;;;;;22.02;15.07;;;16.00;99.90;;;;;;5096580;28;20027;-70
2021/09/27 02:09:28;;;;;;;21.08;14.05;;;16.00;99.90;;;;;;5096156;28;20015;-71
2021/09/27 02:12:10;;;;;;;23.50;14.18;;;16.00;99.90;;;;;;5113246;28;20023;-71
2021/09/27 02:14:51;;;;;;;24.42;15.43;;;15.90;99.90;;;;;;5096646;28;20148;-70
2021/09/27 02:17:24;;;;;;;22.38;14.60;;;15.90;99.90;;;;;;5096499;28;20164;-70
2021/09/27 02:20:08;;;;;;;18.52;14.85;;;15.90;99.90;;;;;;5096534;28;20015;-70
2021/09/27 02:22:45;;;;;;;21.10;16.50;;;15.80;99.90;;;;;;5096273;28;20039;-70
2021/09/27 02:25:20;;;;;;;22.88;15.20;;;15.80;99.90;;;;;;5096129;28;20032;-70
2021/09/27 02:27:48;;;;;;;18.92;14.48;;;15.70;99.90;;;;;;5096054;28;20024;-69
2021/09/27 02:30:21;;;;;;;19.63;15.55;;;15.70;99.90;;;;;;5113163;28;20055;-70
2021/09/27 02:32:46;;;;;;;19.30;15.68;;;15.70;99.90;;;;;;5095955;28;20115;-70
2021/09/27 02:35:23;;;;;;;19.58;14.98;;;15.70;99.90;;;;;;5111967;28;20114;-70
2021/09/27 02:38:02;;;;;;;24.08;15.93;;;15.70;99.90;;;;;;5112691;28;20019;-71
2021/09/27 02:40:32;;;;;;;24.15;17.25;;;15.70;99.90;;;;;;5113964;28;20012;-70
2021/09/27 02:43:01;;;;;;;21.38;15.60;;;15.60;99.90;;;;;;5112637;28;20102;-70
2021/09/27 02:45:28;;;;;;;18.90;15.27;;;15.70;99.90;;;;;;5095421;28;20032;-70
2021/09/27 02:48:00;;;;;;;20.27;14.95;;;15.70;99.90;;;;;;5095442;28;20019;-69
2021/09/27 02:50:29;;;;;;;25.67;15.77;;;15.70;99.90;;;;;;5095822;28;20027;-70
2021/09/27 02:52:56;;;;;;;23.73;16.73;;;15.70;99.90;;;;;;5095755;28;20111;-69
2021/09/27 02:55:29;;;;;;;23.23;16.55;;;15.60;99.90;;;;;;5095694;28;20024;-70
2021/09/27 02:58:09;;;;;;;38.88;16.15;;;15.60;99.90;;;;;;5095397;28;20016;-71
2021/09/27 03:00:45;;;;;;;19.42;16.05;;;15.60;99.90;;;;;;5095896;28;20411;-68
2021/09/27 03:03:27;;;;;;;25.67;16.23;;;15.60;99.90;;;;;;5112395;28;20077;-70
2021/09/27 03:06:03;;;;;;;18.30;14.73;;;15.70;99.90;;;;;;5112478;28;20034;-70
2021/09/27 03:08:50;;;;;;;22.63;15.25;;;15.70;99.90;;;;;;5095266;28;20019;-70
2021/09/27 03:11:37;;;;;;;28.23;16.90;;;15.70;99.90;;;;;;5112992;28;20030;-83
2021/09/27 03:14:13;;;;;;;24.13;15.80;;;15.70;99.90;;;;;;5114086;28;20028;-85
2021/09/27 03:17:01;;;;;;;24.80;16.40;;;15.70;99.90;;;;;;5102315;28;20023;-79
2021/09/27 03:19:55;;;;;;;25.17;15.25;;;15.70;99.90;;;;;;5120713;28;20077;-84
2021/09/27 03:22:55;;;;;;;22.85;15.55;;;15.70;99.90;;;;;;5117953;28;20041;-84
2021/09/27 03:25:24;;;;;;;23.15;16.13;;;15.60;99.90;;;;;;5104710;28;20095;-85
2021/09/27 03:28:16;;;;;;;32.55;17.90;;;15.60;99.90;;;;;;5117992;28;20027;-82
2021/09/27 03:31:10;;;;;;;25.35;16.70;;;15.60;99.90;;;;;;5115168;28;20031;-86
2021/09/27 03:34:00;;;;;;;25.67;18.05;;;15.50;99.90;;;;;;5114137;28;20529;-81
2021/09/27 03:36:53;;;;;;;29.63;16.90;;;15.50;99.90;;;;;;5113338;28;20127;-83
2021/09/27 03:39:39;;;;;;;30.60;19.00;;;15.50;99.90;;;;;;5113622;28;20039;-85
2021/09/27 03:42:15;;;;;;;31.63;18.20;;;15.50;99.90;;;;;;5114315;28;20023;-85
2021/09/27 03:45:05;;;;;;;28.80;17.25;;;15.40;99.90;;;;;;5099144;28;20015;-80
2021/09/27 03:47:43;;;;;;;30.48;18.17;;;15.50;99.90;;;;;;5122466;28;20019;-84
2021/09/27 03:50:25;;;;;;;28.10;16.98;;;15.40;99.90;;;;;;5125347;28;20035;-85
2021/09/27 03:52:54;;;;;;;27.90;18.38;;;15.40;99.90;;;;;;5135646;28;20035;-82
2021/09/27 03:55:40;;;;;;;27.48;18.17;;;15.40;99.90;;;;;;5113310;28;20031;-77
2021/09/27 03:58:16;;;;;;;33.22;19.85;;;15.40;99.90;;;;;;5111933;28;20023;-81
2021/09/27 04:00:51;;;;;;;33.15;19.27;;;15.40;99.90;;;;;;5114542;28;20027;-83
2021/09/27 04:03:33;;;;;;;25.00;18.23;;;15.30;99.90;;;;;;5125533;28;20057;-76
2021/09/27 04:06:20;;;;;;;30.50;17.73;;;15.30;99.90;;;;;;5124390;28;20032;-75
2021/09/27 04:09:01;;;;;;;27.73;17.92;;;15.30;99.90;;;;;;5124204;28;20061;-85
2021/09/27 04:11:53;;;;;;;29.15;19.15;;;15.30;99.90;;;;;;5121241;28;20031;-83
2021/09/27 04:14:35;;;;;;;24.38;17.23;;;15.30;99.90;;;;;;5126165;28;20499;-76
2021/09/27 04:17:38;;;;;;;30.02;18.30;;;15.30;99.90;;;;;;5109951;28;20598;-87
2021/09/27 04:20:09;;;;;;;27.58;18.40;;;15.30;99.90;;;;;;5124499;28;20028;-84
2021/09/27 04:22:40;;;;;;;26.65;18.67;;;15.40;99.90;;;;;;5121310;28;20083;-84
2021/09/27 04:25:21;;;;;;;28.75;18.83;;;15.30;99.90;;;;;;5120750;28;20500;-86
2021/09/27 04:28:31;;;;;;;29.52;18.40;;;15.30;99.90;;;;;;5101620;28;20042;-85
2021/09/27 04:31:00;;;;;;;31.02;19.23;;;15.30;99.90;;;;;;5020215;28;20112;-83
2021/09/27 04:33:53;;;;;;;29.13;18.98;;;15.30;99.90;;;;;;5108162;28;20481;-86
2021/09/27 04:36:28;;;;;;;30.92;18.50;;;15.20;99.90;;;;;;5117006;28;20031;-82
2021/09/27 04:38:57;;;;;;;29.13;17.63;;;15.20;99.90;;;;;;5117716;28;20030;-85
2021/09/27 04:41:40;;;;;;;36.88;19.88;;;15.20;99.90;;;;;;5117707;28;20016;-81
2021/09/27 04:44:27;;;;;;;30.50;19.00;;;15.20;99.90;;;;;;5119224;28;20095;-85
2021/09/27 04:47:15;;;;;;;28.08;20.23;;;15.10;99.90;;;;;;5119055;28;20041;-81
2021/09/27 04:49:51;;;;;;;31.70;20.17;;;15.10;99.90;;;;;;5105493;28;20024;-79
2021/09/27 04:52:49;;;;;;;29.38;19.00;;;15.10;99.90;;;;;;5121620;28;20027;-82
2021/09/27 04:55:45;;;;;;;26.90;18.10;;;15.10;99.90;;;;;;5120855;28;20032;-84
2021/09/27 04:58:42;;;;;;;31.00;18.17;;;15.20;99.90;;;;;;5125742;28;20019;-78
2021/09/27 05:01:30;;;;;;;31.92;20.10;;;15.10;99.90;;;;;;5119560;28;20394;-86
2021/09/27 05:04:17;;;;;;;25.48;18.60;;;15.10;99.90;;;;;;5117940;28;20044;-85
2021/09/27 05:07:12;;;;;;;25.77;18.17;;;15.10;99.90;;;;;;5117957;28;20031;-85
2021/09/27 05:10:24;;;;;;;38.83;19.80;;;15.10;99.90;;;;;;5155875;27;20831;-85
2021/09/27 05:13:09;;;;;;;30.45;19.23;;;15.10;99.90;;;;;;5153791;27;20038;-83
2021/09/27 05:15:41;;;;;;;32.08;20.45;;;15.20;99.90;;;;;;5153104;27;20007;-83
2021/09/27 05:18:33;;;;;;;28.15;20.10;;;15.10;99.90;;;;;;5153090;27;20362;-82
2021/09/27 05:21:27;;;;;;;32.58;20.50;;;15.10;99.90;;;;;;5153078;27;20358;-85
2021/09/27 05:23:53;;;;;;;29.48;20.15;;;15.10;99.90;;;;;;5136166;27;20058;-84
2021/09/27 05:26:56;;;;;;;29.80;19.70;;;15.10;99.90;;;;;;5153080;27;20023;-85
2021/09/27 05:29:43;;;;;;;28.88;20.08;;;15.10;99.90;;;;;;5153678;27;20035;-85
2021/09/27 05:32:53;;;;;;;30.33;19.85;;;15.00;99.90;;;;;;5154527;27;20044;-83
2021/09/27 05:35:22;;;;;;;40.75;22.17;;;15.00;99.90;;;;;;5142246;27;20034;-84
2021/09/27 05:38:23;;;;;;;31.88;21.70;;;15.10;99.90;;;;;;5163105;27;20541;-83
2021/09/27 05:41:04;;;;;;;31.02;19.80;;;15.10;99.90;;;;;;5136846;27;20110;-84
2021/09/27 05:43:59;;;;;;;32.58;21.42;;;15.10;99.90;;;;;;5159822;27;20023;-84
2021/09/27 05:46:44;;;;;;;35.03;20.92;;;15.10;99.90;;;;;;5166245;27;20031;-82
2021/09/27 05:49:19;;;;;;;42.55;21.10;;;15.10;99.90;;;;;;5160759;27;20042;-85
2021/09/27 05:51:55;;;;;;;34.53;21.35;;;15.20;99.90;;;;;;5143105;27;20023;-82
2021/09/27 05:54:56;;;;;;;34.25;23.17;;;15.20;99.90;;;;;;5136828;27;20082;-79
2021/09/27 05:57:59;;;;;;;35.28;21.17;;;15.20;99.90;;;;;;5106442;27;20034;-81
2021/09/27 06:00:30;;;;;;;33.08;21.95;;;15.30;99.90;;;;;;5119580;27;20027;-79
2021/09/27 06:03:09;;;;;;;31.80;22.42;;;15.40;99.90;;;;;;5153199;27;20377;-80
2021/09/27 06:05:51;;;;;;;42.33;23.45;;;15.50;99.90;;;;;;5154664;27;20054;-80
2021/09/27 06:09:12;;;;;;;31.38;21.10;;;15.60;99.90;;;;;;5135442;27;20512;-84
2021/09/27 06:11:43;;;;;;;36.13;20.80;;;15.80;99.90;;;;;;5121095;27;20042;-83
2021/09/27 06:14:13;;;;;;;33.33;22.73;;;15.90;99.90;;;;;;5138308;27;20019;-80
2021/09/27 06:17:16;;;;;;;38.38;21.67;;;16.10;99.90;;;;;;5133576;27;20493;-81
2021/09/27 06:19:45;;;;;;;35.45;23.05;;;16.30;99.90;;;;;;5145189;27;20068;-76
2021/09/27 06:22:33;;;;;;;36.55;21.48;;;16.40;99.90;;;;;;5137442;27;20023;-87
2021/09/27 06:25:12;;;;;;;34.97;21.52;;;16.50;99.90;;;;;;5137804;27;20023;-75
2021/09/27 06:28:05;;;;;;;38.25;22.05;;;16.60;99.90;;;;;;5136060;27;20465;-77
2021/09/27 06:30:48;;;;;;;27.90;20.67;;;16.90;99.90;;;;;;5136223;27;20019;-80
2021/09/27 06:33:40;;;;;;;33.55;19.98;;;17.10;99.90;;;;;;5119459;27;20019;-80
2021/09/27 06:36:08;;;;;;;29.23;20.02;;;17.30;99.90;;;;;;5136219;27;20040;-82
2021/09/27 06:38:36;;;;;;;29.95;18.27;;;17.60;99.90;;;;;;5118817;27;20034;-75
2021/09/27 06:41:04;;;;;;;27.63;18.17;;;17.70;99.90;;;;;;5118783;27;20024;-78
2021/09/27 06:43:30;;;;;;;27.80;18.33;;;17.80;99.90;;;;;;5120132;27;20389;-81
2021/09/27 06:45:56;;;;;;;24.58;17.15;;;17.70;99.90;;;;;;5119572;27;20023;-76
2021/09/27 06:48:24;;;;;;;22.48;15.90;;;17.80;99.90;;;;;;5136167;27;20038;-85
2021/09/27 06:50:50;;;;;;;21.55;15.35;;;17.80;99.90;;;;;;5118944;27;20039;-81
2021/09/27 06:53:16;;;;;;;22.88;15.75;;;17.70;99.90;;;;;;5136047;27;20068;-74
2021/09/27 06:55:42;;;;;;;20.95;15.20;;;17.70;99.90;;;;;;5119646;27;20027;-85
2021/09/27 06:58:08;;;;;;;24.50;14.05;;;17.60;99.90;;;;;;5119060;27;20088;-83
2021/09/27 07:00:34;;;;;;;18.75;13.65;;;17.60;99.90;;;;;;5119539;27;20023;-85
2021/09/27 07:03:00;;;;;;;17.02;12.93;;;17.60;99.90;;;;;;5122571;27;20050;-83
2021/09/27 07:05:26;;;;;;;16.40;12.63;;;17.50;99.90;;;;;;5119018;27;20096;-80
2021/09/27 07:07:51;;;;;;;17.00;12.25;;;17.50;99.90;;;;;;5136460;27;20047;-77
2021/09/27 07:10:20;;;;;;;16.85;12.40;;;17.40;99.90;;;;;;5118259;27;20031;-78
2021/09/27 07:12:46;;;;;;;19.23;11.38;;;17.50;99.90;;;;;;5119888;27;20392;-78
2021/09/27 07:15:12;;;;;;;14.82;10.55;;;17.50;99.90;;;;;;5135570;27;20019;-74
2021/09/27 07:17:38;;;;;;;12.50;9.30;;;17.60;99.90;;;;;;5119011;27;20015;-77
2021/09/27 07:20:15;;;;;;;11.05;9.20;;;17.60;99.90;;;;;;5119170;27;20369;-78
2021/09/27 07:22:41;;;;;;;13.32;9.55;;;17.60;99.90;;;;;;5118752;27;20095;-75
2021/09/27 07:25:08;;;;;;;18.63;9.63;;;17.70;99.90;;;;;;5135515;27;20027;-76
2021/09/27 07:27:35;;;;;;;11.85;8.80;;;17.70;99.90;;;;;;5135604;27;20023;-78
2021/09/27 07:30:00;;;;;;;11.35;8.85;;;17.90;99.90;;;;;;5117474;27;20477;-78
2021/09/27 07:32:26;;;;;;;14.75;8.68;;;18.00;99.90;;;;;;5133962;27;20038;-80
2021/09/27 07:34:52;;;;;;;12.23;8.57;;;18.20;99.90;;;;;;5117829;27;20089;-79
2021/09/27 07:37:17;;;;;;;12.10;9.15;;;18.20;99.90;;;;;;5135442;27;20019;-77
2021/09/27 07:39:43;;;;;;;11.38;7.85;;;18.30;99.90;;;;;;5134717;27;20477;-77
2021/09/27 07:42:09;;;;;;;13.48;8.02;;;18.50;99.90;;;;;;5139483;27;20024;-76
2021/09/27 07:44:36;;;;;;;8.95;7.15;;;18.70;99.90;;;;;;5127510;27;20019;-71
2021/09/27 07:47:03;;;;;;;13.90;7.90;;;18.90;99.90;;;;;;5138211;27;20119;-72
2021/09/27 07:49:28;;;;;;;11.35;6.82;;;19.10;99.90;;;;;;5120615;27;20047;-73
2021/09/27 07:51:57;;;;;;;10.73;8.25;;;19.20;99.90;;;;;;5122509;27;20019;-71
2021/09/27 07:54:22;;;;;;;9.40;7.28;;;19.40;99.90;;;;;;5123655;27;20019;-74
2021/09/27 07:56:49;;;;;;;9.73;8.18;;;19.50;99.90;;;;;;5106738;27;20054;-71
2021/09/27 07:59:15;;;;;;;10.88;7.75;;;19.50;99.90;;;;;;5117913;27;20023;-72
2021/09/27 08:01:41;;;;;;;10.75;8.25;;;19.30;99.90;;;;;;5134770;27;20098;-72
2021/09/27 08:04:09;;;;;;;11.55;8.80;;;19.10;99.90;;;;;;5134350;27;20119;-78
2021/09/27 08:06:34;;;;;;;10.93;7.55;;;18.80;99.90;;;;;;5135284;27;20019;-77
2021/09/27 08:09:00;;;;;;;11.55;8.60;;;18.60;99.90;;;;;;5133915;27;20111;-72
2021/09/27 08:11:26;;;;;;;15.13;9.68;;;18.50;99.90;;;;;;5116800;27;20493;-73
2021/09/27 08:13:51;;;;;;;14.93;9.13;;;18.50;99.90;;;;;;5133715;27;20024;-76
2021/09/27 08:16:17;;;;;;;14.02;9.00;;;18.40;99.90;;;;;;5135536;27;20071;-73
2021/09/27 08:18:42;;;;;;;11.40;9.35;;;18.40;99.90;;;;;;5134871;27;20033;-74
2021/09/27 08:21:14;;;;;;;12.02;9.45;;;18.40;99.90;;;;;;5134792;27;20094;-73
2021/09/27 08:23:39;;;;;;;11.57;8.75;;;18.40;99.90;;;;;;5134788;27;20450;-71
2021/09/27 08:26:06;;;;;;;16.25;10.05;;;18.40;99.90;;;;;;5133817;27;20047;-81
2021/09/27 08:28:33;;;;;;;12.48;10.02;;;18.50;99.90;;;;;;5116543;27;20088;-72
2021/09/27 08:31:02;;;;;;;16.02;10.15;;;18.50;99.90;;;;;;5134360;27;20020;-72
2021/09/27 08:33:29;;;;;;;12.90;10.50;;;18.50;99.90;;;;;;5135170;27;20019;-78
2021/09/27 08:35:57;;;;;;;12.25;9.63;;;18.60;99.90;;;;;;5134598;27;20026;-78
2021/09/27 08:38:23;;;;;;;15.85;9.35;;;18.60;99.90;;;;;;5117931;27;20488;-71
2021/09/27 08:40:58;;;;;;;10.60;9.43;;;18.60;99.90;;;;;;5116569;27;20019;-77
2021/09/27 08:43:35;;;;;;;15.07;10.18;;;18.70;99.90;;;;;;5133558;27;20109;-79
2021/09/27 08:46:12;;;;;;;13.55;10.82;;;18.70;99.90;;;;;;5133727;27;20082;-81
2021/09/27 08:48:43;;;;;;;12.50;9.75;;;18.80;99.90;;;;;;5115730;27;20058;-77
2021/09/27 08:51:08;;;;;;;11.85;9.43;;;19.00;99.90;;;;;;5133166;27;20369;-76
2021/09/27 08:53:39;;;;;;;11.70;10.05;;;19.20;99.90;;;;;;5115994;27;20130;-76
2021/09/27 08:56:17;;;;;;;13.25;10.45;;;19.20;99.90;;;;;;5133380;27;20027;-73
2021/09/27 08:59:05;;;;;;;12.55;10.20;;;19.40;99.90;;;;;;5133421;27;20023;-70
2021/09/27 09:01:40;;;;;;;18.25;10.93;;;19.70;99.90;;;;;;5116110;27;20019;-73
2021/09/27 09:04:20;;;;;;;13.90;10.50;;;20.10;99.90;;;;;;5134304;27;20397;-74
2021/09/27 09:06:51;;;;;;;13.45;10.23;;;20.50;99.90;;;;;;5134217;27;20031;-73
2021/09/27 09:09:19;;;;;;;17.33;10.25;;;20.90;99.90;;;;;;5132866;28;20047;-73
2021/09/27 09:11:57;;;;;;;11.48;9.98;;;21.20;99.90;;;;;;5115730;28;20046;-72
2021/09/27 09:14:42;;;;;;;13.00;10.18;;;21.40;99.90;;;;;;5132897;28;20023;-76
2021/09/27 09:17:46;;;;;;;10.57;9.43;;;21.40;99.90;;;;;;5115756;28;20067;-69
2021/09/27 09:20:19;;;;;;;13.38;9.65;;;21.20;99.90;;;;;;5073851;28;20040;-68
2021/09/27 09:22:47;;;;;;;12.63;10.18;;;21.10;99.90;;;;;;5124294;28;20035;-71
2021/09/27 09:25:29;;;;;;;14.10;9.90;;;21.10;99.90;;;;;;5115743;28;20118;-73
2021/09/27 09:27:55;;;;;;;10.70;9.07;;;21.00;99.90;;;;;;5115839;28;20027;-73
2021/09/27 09:30:39;;;;;;;13.68;9.25;;;20.90;99.90;;;;;;5134957;28;20088;-69
2021/09/27 09:33:05;;;;;;;12.60;8.90;;;20.90;99.90;;;;;;5115272;28;20023;-68
2021/09/27 09:35:32;;;;;;;11.20;8.90;;;20.80;99.90;;;;;;5115502;28;20019;-72
2021/09/27 09:38:05;;;;;;;16.80;9.45;;;20.70;99.90;;;;;;5132438;28;20027;-71
2021/09/27 09:40:36;;;;;;;13.30;8.97;;;20.60;99.90;;;;;;5132408;28;20060;-68
2021/09/27 09:43:15;;;;;;;15.18;8.30;;;20.50;99.90;;;;;;5115162;28;20019;-70
2021/09/27 09:45:44;;;;;;;11.05;8.60;;;20.40;99.90;;;;;;5132505;28;20024;-72
2021/09/27 09:48:30;;;;;;;10.65;8.20;;;20.50;99.90;;;;;;5115490;28;20027;-75
2021/09/27 09:50:59;;;;;;;23.83;7.90;;;20.60;99.90;;;;;;5115680;28;20113;-72
2021/09/27 09:53:33;;;;;;;10.48;8.38;;;20.70;99.90;;;;;;5115764;28;20033;-70
2021/09/27 09:56:03;;;;;;;12.45;7.65;;;20.80;99.90;;;;;;5118217;27;20068;-71
2021/09/27 09:58:38;;;;;;;8.07;6.45;;;21.00;99.90;;;;;;5118953;27;20442;-69
2021/09/27 10:01:20;;;;;;;11.77;5.95;;;21.30;99.90;;;;;;5135883;27;20028;-69
2021/09/27 10:03:56;;;;;;;8.90;6.95;;;21.40;99.90;;;;;;5137335;27;20024;-71
2021/09/27 10:06:42;;;;;;;8.73;6.15;;;21.50;99.90;;;;;;5137339;27;20440;-71
2021/09/27 10:09:28;;;;;;;10.55;5.60;;;21.50;99.90;;;;;;5137067;27;20074;-70
2021/09/27 10:11:57;;;;;;;8.00;6.40;;;21.50;99.90;;;;;;5137272;27;20072;-70
2021/09/27 10:14:29;;;;;;;11.55;6.45;;;21.30;99.90;;;;;;5136390;27;20019;-71
2021/09/27 10:17:22;;;;;;;7.53;5.72;;;21.30;99.90;;;;;;5136025;27;20035;-72
2021/09/27 10:20:10;;;;;;;9.07;6.18;;;21.20;99.90;;;;;;5137487;27;20377;-69
2021/09/27 10:22:45;;;;;;;7.05;5.00;;;21.00;99.90;;;;;;5136692;27;20026;-71
2021/09/27 10:25:32;;;;;;;8.95;5.40;;;20.90;99.90;;;;;;5120523;27;20110;-71
2021/09/27 10:28:00;;;;;;;9.10;5.57;;;20.90;99.90;;;;;;5137011;27;20369;-71
2021/09/27 10:30:53;;;;;;;8.40;5.13;;;20.90;99.90;;;;;;5119358;27;20039;-71
2021/09/27 10:33:28;;;;;;;5.72;4.78;;;21.00;99.90;;;;;;5134954;27;20081;-70
2021/09/27 10:36:00;;;;;;;6.72;5.40;;;21.00;99.90;;;;;;5138177;27;20535;-70
2021/09/27 10:38:36;;;;;;;6.13;4.50;;;21.10;99.90;;;;;;5137056;27;20110;-72
2021/09/27 10:41:37;;;;;;;7.50;5.15;;;21.20;99.90;;;;;;5136779;27;20037;-69
2021/09/27 10:44:12;;;;;;;7.13;4.50;;;21.40;99.90;;;;;;5128824;27;20088;-72
2021/09/27 10:46:39;;;;;;;11.55;5.18;;;21.60;99.90;;;;;;5119063;27;20031;-76
2021/09/27 10:49:13;;;;;;;7.55;4.88;;;21.60;99.90;;;;;;5119694;27;20035;-74
2021/09/27 10:51:39;;;;;;;14.75;5.75;;;21.60;99.90;;;;;;5120029;27;20015;-74
2021/09/27 10:54:14;;;;;;;7.63;4.57;;;21.60;99.90;;;;;;5136462;27;20023;-71
2021/09/27 10:56:48;;;;;;;7.57;4.15;;;21.70;99.90;;;;;;5139397;27;20042;-72
2021/09/27 10:59:35;;;;;;;7.47;4.82;;;21.80;99.90;;;;;;5136998;27;20110;-71
2021/09/27 11:02:22;;;;;;;7.28;5.03;;;21.80;99.90;;;;;;5118353;27;20423;-69
2021/09/27 11:04:54;;;;;;;8.57;4.15;;;22.10;99.90;;;;;;5136324;27;20114;-71
2021/09/27 11:07:47;;;;;;;6.78;4.30;;;22.30;99.90;;;;;;5135231;27;20019;-72
2021/09/27 11:10:41;;;;;;;7.72;4.18;;;22.50;99.90;;;;;;5135070;27;20063;-72
2021/09/27 11:13:06;;;;;;;8.18;4.35;;;22.70;99.90;;;;;;5127660;27;20443;-75
2021/09/27 11:15:34;;;;;;;9.65;3.92;;;22.80;99.90;;;;;;5118001;27;20045;-79
2021/09/27 11:18:06;;;;;;;9.52;3.60;;;23.00;99.90;;;;;;5135342;27;20473;-74
2021/09/27 11:20:50;;;;;;;4.80;3.33;;;23.20;99.90;;;;;;5135445;27;20114;-74
2021/09/27 11:23:38;;;;;;;5.82;3.15;;;23.40;99.90;;;;;;5136239;27;20549;-73
2021/09/27 11:26:19;;;;;;;6.38;2.80;;;23.60;99.90;;;;;;5117967;27;20023;-73
2021/09/27 11:28:50;;;;;;;4.78;2.60;;;23.50;99.90;;;;;;5136007;27;20110;-75
2021/09/27 11:31:27;;;;;;;4.75;2.42;;;23.40;99.90;;;;;;5118101;27;20501;-71
2021/09/27 11:33:56;;;;;;;5.15;2.58;;;23.60;99.90;;;;;;5135963;27;20023;-73
2021/09/27 11:36:47;;;;;;;6.78;2.45;;;23.80;99.90;;;;;;5117794;27;20037;-76
2021/09/27 11:39:38;;;;;;;4.93;2.15;;;24.00;99.90;;;;;;5136155;27;20043;-73
2021/09/27 11:42:12;;;;;;;6.25;2.17;;;24.10;99.90;;;;;;5134117;27;20058;-74
2021/09/27 11:45:00;;;;;;;3.75;2.33;;;24.10;99.90;;;;;;5137963;27;20019;-69
2021/09/27 11:47:44;;;;;;;2.85;1.70;;;24.10;99.90;;;;;;5143249;27;20442;-69
2021/09/27 11:50:29;;;;;;;4.70;2.28;;;24.30;99.90;;;;;;5138263;27;20088;-72
2021/09/27 11:53:02;;;;;;;2.67;1.70;;;24.30;99.90;;;;;;5137772;27;20034;-76
2021/09/27 11:55:32;;;;;;;5.97;1.52;;;24.50;99.90;;;;;;5136605;27;20023;-70
2021/09/27 11:58:18;;;;;;;2.55;1.30;;;24.60;99.90;;;;;;5117343;27;20027;-70
2021/09/27 12:00:56;;;;;;;5.07;1.60;;;24.30;99.90;;;;;;5134164;27;20031;-70
2021/09/27 12:03:44;;;;;;;3.28;1.73;;;24.00;99.90;;;;;;5116721;27;20472;-72
2021/09/27 12:06:17;;;;;;;3.15;1.50;;;23.80;99.90;;;;;;5116778;27;20031;-73
2021/09/27 12:08:44;;;;;;;4.60;1.55;;;23.60;99.90;;;;;;5133598;27;20054;-71
2021/09/27 12:11:11;;;;;;;3.53;1.73;;;23.30;99.90;;;;;;5116699;27;20034;-72
2021/09/27 12:13:50;;;;;;;4.50;1.70;;;23.10;99.90;;;;;;5133843;27;20034;-73
2021/09/27 12:16:38;;;;;;;3.67;1.90;;;22.70;99.90;;;;;;5134193;27;20020;-71
2021/09/27 12:19:25;;;;;;;4.63;1.90;;;22.50;99.90;;;;;;5106374;27;20096;-68
2021/09/27 12:22:05;;;;;;;6.00;1.75;;;22.20;99.90;;;;;;5134076;27;20476;-70
2021/09/27 12:24:37;;;;;;;2.90;1.50;;;22.00;99.90;;;;;;5134230;27;20362;-71
2021/09/27 12:27:19;;;;;;;7.25;2.60;;;21.80;99.90;;;;;;5116579;27;20026;-74
2021/09/27 12:30:08;;;;;;;7.97;2.25;;;21.70;99.90;;;;;;5116262;27;20121;-71
2021/09/27 12:32:37;;;;;;;4.95;2.50;;;21.50;99.90;;;;;;5133611;27;20022;-70
2021/09/27 12:35:06;;;;;;;3.08;1.85;;;21.40;99.90;;;;;;5134616;27;20057;-69
2021/09/27 12:37:39;;;;;;;4.22;2.10;;;21.20;99.90;;;;;;5133226;27;20015;-72
2021/09/27 12:40:13;;;;;;;5.78;2.28;;;21.00;99.90;;;;;;5133458;27;20388;-72
2021/09/27 12:42:44;;;;;;;3.80;1.95;;;20.80;99.90;;;;;;5116107;27;20163;-72
2021/09/27 12:45:25;;;;;;;4.32;2.10;;;20.50;99.90;;;;;;5116610;27;20030;-72
2021/09/27 12:47:51;;;;;;;7.72;2.20;;;20.30;99.90;;;;;;5116324;27;20023;-73
2021/09/27 12:50:23;;;;;;;3.72;2.67;;;19.90;99.90;;;;;;5116365;27;20023;-72
2021/09/27 12:52:52;;;;;;;7.63;2.65;;;19.60;99.90;;;;;;5116565;27;20106;-74
2021/09/27 12:55:30;;;;;;;7.15;3.15;;;19.30;99.90;;;;;;5133334;27;20019;-78
2021/09/27 12:58:10;;;;;;;4.18;2.85;;;19.10;99.90;;;;;;5116052;28;20011;-76
2021/09/27 13:00:40;;;;;;;6.32;2.55;;;19.00;99.90;;;;;;5133558;27;20430;-72
2021/09/27 13:03:10;;;;;;;3.47;1.75;;;18.90;99.90;;;;;;5116161;27;20031;-71
2021/09/27 13:06:10;;;;;;;2.83;1.92;;;18.70;99.90;;;;;;5134008;27;20023;-72
2021/09/27 13:08:49;;;;;;;4.57;1.77;;;18.50;99.90;;;;;;5122343;28;20043;-73
2021/09/27 13:11:20;;;;;;;7.00;1.88;;;18.40;99.90;;;;;;5115992;28;20451;-72
2021/09/27 13:13:59;;;;;;;2.45;1.80;;;18.30;99.90;;;;;;5133180;28;20076;-74
2021/09/27 13:16:27;;;;;;;3.97;1.50;;;18.20;99.90;;;;;;5134673;27;20062;-75
2021/09/27 13:18:52;;;;;;;2.95;1.02;;;18.10;99.90;;;;;;5100110;28;20031;-74
2021/09/27 13:21:22;;;;;;;1.17;0.90;;;18.00;99.90;;;;;;5134725;27;20106;-73